sensor_id;sensor_type;location;lat;lon;timestamp;pressure;altitude;pressure_sealevel;temperature;humidity
60715;BME280;46564;53.096;8.246;2023-03-15T00:03:22;100624.81;;;0.20;85.06
60715;BME280;46564;53.096;8.246;2023-03-15T00:08:25;100634.91;;;0.16;84.89
60715;BME280;46564;53.096;8.246;2023-03-15T00:13:37;100633.88;;;0.13;85.21
60715;BME280;46564;53.096;8.246;2023-03-15T00:18:38;100648.44;;;0.12;85.25
60715;BME280;46564;53.096;8.246;2023-03-15T00:23:40;100644.16;;;0.13;85.72
60715;BME280;46564;53.096;8.246;2023-03-15T00:28:41;100643.63;;;0.19;85.68
60715;BME280;46564;53.096;8.246;2023-03-15T00:33:44;100650.75;;;0.23;85.58
60715;BME280;46564;53.096;8.246;2023-03-15T00:38:46;100655.81;;;0.21;86.01
60715;BME280;46564;53.096;8.246;2023-03-15T00:43:53;100665.28;;;0.22;85.86
60715;BME280;46564;53.096;8.246;2023-03-15T00:48:55;100661.22;;;0.26;85.93
60715;BME280;46564;53.096;8.246;2023-03-15T00:53:56;100670.69;;;0.27;86.01
60715;BME280;46564;53.096;8.246;2023-03-15T00:58:58;100673.75;;;0.20;85.81
60715;BME280;46564;53.096;8.246;2023-03-15T01:03:59;100679.78;;;0.20;86.45
60715;BME280;46564;53.096;8.246;2023-03-15T01:09:01;100691.66;;;0.33;85.88
60715;BME280;46564;53.096;8.246;2023-03-15T01:14:07;100699.53;;;0.36;86.43
60715;BME280;46564;53.096;8.246;2023-03-15T01:19:54;100726.47;;;0.41;86.17
60715;BME280;46564;53.096;8.246;2023-03-15T01:25:25;100724.94;;;0.45;86.23
60715;BME280;46564;53.096;8.246;2023-03-15T01:30:52;100733.75;;;0.48;86.47
60715;BME280;46564;53.096;8.246;2023-03-15T01:36:20;100733.94;;;0.51;86.58
60715;BME280;46564;53.096;8.246;2023-03-15T01:41:43;100748.56;;;0.52;86.86
60715;BME280;46564;53.096;8.246;2023-03-15T01:47:18;100752.22;;;0.56;87.45
60715;BME280;46564;53.096;8.246;2023-03-15T01:52:40;100756.69;;;0.59;87.49
60715;BME280;46564;53.096;8.246;2023-03-15T01:57:58;100758.44;;;0.60;88.04
60715;BME280;46564;53.096;8.246;2023-03-15T02:04:00;100766.25;;;0.61;88.12
60715;BME280;46564;53.096;8.246;2023-03-15T02:09:34;100774.22;;;0.66;88.48
60715;BME280;46564;53.096;8.246;2023-03-15T02:14:55;100776.19;;;0.70;88.76
60715;BME280;46564;53.096;8.246;2023-03-15T02:30:57;100787.19;;;0.82;88.94
60715;BME280;46564;53.096;8.246;2023-03-15T02:42:28;100793.50;;;0.87;89.34
60715;BME280;46564;53.096;8.246;2023-03-15T02:48:04;100801.25;;;0.87;89.50
60715;BME280;46564;53.096;8.246;2023-03-15T03:00:05;100832.00;;;0.84;89.60
60715;BME280;46564;53.096;8.246;2023-03-15T03:05:38;100839.75;;;0.84;89.54
60715;BME280;46564;53.096;8.246;2023-03-15T03:10:56;100856.72;;;0.81;89.93
60715;BME280;46564;53.096;8.246;2023-03-15T03:16:24;100867.00;;;0.81;90.09
60715;BME280;46564;53.096;8.246;2023-03-15T03:21:31;100873.88;;;0.80;90.32
60715;BME280;46564;53.096;8.246;2023-03-15T03:26:46;100896.03;;;0.77;90.65
60715;BME280;46564;53.096;8.246;2023-03-15T03:32:12;100898.69;;;0.78;90.66
60715;BME280;46564;53.096;8.246;2023-03-15T03:37:35;100914.75;;;0.74;90.89
60715;BME280;46564;53.096;8.246;2023-03-15T03:43:09;100914.84;;;0.76;91.13
60715;BME280;46564;53.096;8.246;2023-03-15T03:48:29;100921.31;;;0.69;91.16
60715;BME280;46564;53.096;8.246;2023-03-15T03:54:00;100925.25;;;0.62;91.08
60715;BME280;46564;53.096;8.246;2023-03-15T03:59:19;100934.91;;;0.51;91.50
60715;BME280;46564;53.096;8.246;2023-03-15T04:04:45;100950.69;;;0.43;91.69
60715;BME280;46564;53.096;8.246;2023-03-15T04:10:04;100956.97;;;0.33;91.46
60715;BME280;46564;53.096;8.246;2023-03-15T04:15:17;100965.91;;;0.25;91.40
60715;BME280;46564;53.096;8.246;2023-03-15T04:20:46;100974.94;;;0.18;91.78
60715;BME280;46564;53.096;8.246;2023-03-15T04:26:32;100990.94;;;-0.01;91.83
60715;BME280;46564;53.096;8.246;2023-03-15T04:32:14;101004.31;;;-0.07;91.61
60715;BME280;46564;53.096;8.246;2023-03-15T04:37:49;101021.06;;;-0.13;91.72
60715;BME280;46564;53.096;8.246;2023-03-15T04:43:17;101023.94;;;-0.22;91.59
60715;BME280;46564;53.096;8.246;2023-03-15T04:48:46;101016.63;;;-0.29;91.90
60715;BME280;46564;53.096;8.246;2023-03-15T04:54:31;101017.09;;;-0.35;92.12
60715;BME280;46564;53.096;8.246;2023-03-15T05:00:00;101028.59;;;-0.43;92.18
60715;BME280;46564;53.096;8.246;2023-03-15T05:06:11;101026.50;;;-0.49;91.92
60715;BME280;46564;53.096;8.246;2023-03-15T05:12:13;101039.44;;;-0.61;92.20
60715;BME280;46564;53.096;8.246;2023-03-15T05:18:01;101059.41;;;-0.70;92.34
60715;BME280;46564;53.096;8.246;2023-03-15T05:23:39;101066.81;;;-0.75;92.67
60715;BME280;46564;53.096;8.246;2023-03-15T05:29:33;101069.88;;;-0.80;92.53
60715;BME280;46564;53.096;8.246;2023-03-15T05:35:19;101082.53;;;-0.83;92.62
60715;BME280;46564;53.096;8.246;2023-03-15T05:41:13;101101.91;;;-0.88;92.83
60715;BME280;46564;53.096;8.246;2023-03-15T05:53:45;101123.47;;;-0.86;93.10
60715;BME280;46564;53.096;8.246;2023-03-15T05:59:44;101137.31;;;-0.84;93.10
60715;BME280;46564;53.096;8.246;2023-03-15T06:05:31;101137.31;;;-0.84;93.31
60715;BME280;46564;53.096;8.246;2023-03-15T06:10:52;101147.13;;;-0.79;93.37
60715;BME280;46564;53.096;8.246;2023-03-15T06:16:02;101153.59;;;-0.72;93.46
60715;BME280;46564;53.096;8.246;2023-03-15T06:21:22;101151.34;;;-0.67;93.62
60715;BME280;46564;53.096;8.246;2023-03-15T06:27:05;101153.81;;;-0.56;93.64
60715;BME280;46564;53.096;8.246;2023-03-15T06:32:17;101173.16;;;-0.49;93.74
60715;BME280;46564;53.096;8.246;2023-03-15T06:37:45;101183.75;;;-0.44;93.54
60715;BME280;46564;53.096;8.246;2023-03-15T06:43:14;101195.34;;;-0.38;93.57
60715;BME280;46564;53.096;8.246;2023-03-15T06:48:48;101214.47;;;-0.34;93.66
60715;BME280;46564;53.096;8.246;2023-03-15T06:54:11;101218.03;;;-0.32;93.74
60715;BME280;46564;53.096;8.246;2023-03-15T06:59:46;101233.88;;;-0.26;93.52
60715;BME280;46564;53.096;8.246;2023-03-15T07:05:10;101241.53;;;-0.14;93.54
60715;BME280;46564;53.096;8.246;2023-03-15T07:10:18;101244.53;;;-0.08;93.19
60715;BME280;46564;53.096;8.246;2023-03-15T07:15:28;101258.34;;;0.06;93.04
60715;BME280;46564;53.096;8.246;2023-03-15T07:20:41;101265.38;;;0.22;93.05
60715;BME280;46564;53.096;8.246;2023-03-15T07:26:07;101269.97;;;0.40;92.71
60715;BME280;46564;53.096;8.246;2023-03-15T07:32:06;101272.78;;;0.56;92.09
60715;BME280;46564;53.096;8.246;2023-03-15T07:37:40;101283.00;;;0.95;91.82
60715;BME280;46564;53.096;8.246;2023-03-15T07:42:50;101290.88;;;2.24;91.26
60715;BME280;46564;53.096;8.246;2023-03-15T07:48:17;101287.50;;;3.66;89.80
60715;BME280;46564;53.096;8.246;2023-03-15T07:53:20;101299.81;;;4.72;87.27
60715;BME280;46564;53.096;8.246;2023-03-15T07:58:30;101299.81;;;4.72;87.27
60715;BME280;46564;53.096;8.246;2023-03-15T08:03:34;101310.84;;;5.59;81.32
60715;BME280;46564;53.096;8.246;2023-03-15T08:08:40;101315.59;;;6.07;79.01
60715;BME280;46564;53.096;8.246;2023-03-15T08:13:52;101315.59;;;6.07;79.01
60715;BME280;46564;53.096;8.246;2023-03-15T08:19:09;101318.38;;;6.31;74.81
60715;BME280;46564;53.096;8.246;2023-03-15T08:24:20;101339.63;;;5.83;73.68
60715;BME280;46564;53.096;8.246;2023-03-15T08:29:42;101348.50;;;6.26;73.27
60715;BME280;46564;53.096;8.246;2023-03-15T08:34:57;101353.50;;;6.22;72.11
60715;BME280;46564;53.096;8.246;2023-03-15T08:40:07;101374.00;;;6.35;71.51
60715;BME280;46564;53.096;8.246;2023-03-15T08:45:32;101382.06;;;6.61;71.18
60715;BME280;46564;53.096;8.246;2023-03-15T08:50:59;101379.78;;;6.68;70.43
60715;BME280;46564;53.096;8.246;2023-03-15T08:56:05;101389.63;;;6.54;69.93
60715;BME280;46564;53.096;8.246;2023-03-15T09:01:16;101399.69;;;6.68;69.73
60715;BME280;46564;53.096;8.246;2023-03-15T09:06:26;101398.44;;;7.21;69.60
60715;BME280;46564;53.096;8.246;2023-03-15T09:11:32;101405.53;;;7.47;68.70
60715;BME280;46564;53.096;8.246;2023-03-15T09:16:36;101406.19;;;7.64;67.77
60715;BME280;46564;53.096;8.246;2023-03-15T09:21:37;101413.28;;;7.45;66.48
60715;BME280;46564;53.096;8.246;2023-03-15T09:26:39;101413.94;;;7.39;66.22
60715;BME280;46564;53.096;8.246;2023-03-15T09:31:41;101422.66;;;7.63;66.30
60715;BME280;46564;53.096;8.246;2023-03-15T09:36:43;101428.94;;;7.68;65.36
60715;BME280;46564;53.096;8.246;2023-03-15T09:41:53;101432.91;;;7.81;65.03
60715;BME280;46564;53.096;8.246;2023-03-15T09:47:39;101435.88;;;8.12;64.43
60715;BME280;46564;53.096;8.246;2023-03-15T09:53:08;101446.03;;;7.82;63.49
60715;BME280;46564;53.096;8.246;2023-03-15T09:58:28;101530.91;;;6.34;63.96
60715;BME280;46564;53.096;8.246;2023-03-15T10:16:51;101569.72;;;0.89;75.76
60715;BME280;46564;53.096;8.246;2023-03-15T10:27:27;101562.53;;;0.60;79.58
60715;BME280;46564;53.096;8.246;2023-03-15T10:32:37;101545.50;;;0.62;81.02
60715;BME280;46564;53.096;8.246;2023-03-15T10:38:24;101545.28;;;0.84;82.39
60715;BME280;46564;53.096;8.246;2023-03-15T10:43:34;101530.81;;;1.24;83.17
60715;BME280;46564;53.096;8.246;2023-03-15T10:49:10;101533.22;;;1.62;84.12
60715;BME280;46564;53.096;8.246;2023-03-15T10:54:18;101543.84;;;1.93;84.28
60715;BME280;46564;53.096;8.246;2023-03-15T10:59:26;101604.53;;;2.00;84.46
60715;BME280;46564;53.096;8.246;2023-03-15T11:04:28;101611.59;;;1.89;84.15
60715;BME280;46564;53.096;8.246;2023-03-15T11:09:43;101610.69;;;1.62;84.03
60715;BME280;46564;53.096;8.246;2023-03-15T11:14:47;101622.84;;;1.76;84.53
60715;BME280;46564;53.096;8.246;2023-03-15T11:24:57;101629.22;;;2.08;85.36
60715;BME280;46564;53.096;8.246;2023-03-15T11:36:06;101640.91;;;2.29;85.75
60715;BME280;46564;53.096;8.246;2023-03-15T11:41:27;101641.72;;;2.42;85.94
60715;BME280;46564;53.096;8.246;2023-03-15T11:46:47;101651.34;;;2.44;85.93
60715;BME280;46564;53.096;8.246;2023-03-15T12:11:36;101622.84;;;1.89;86.33
60715;BME280;46564;53.096;8.246;2023-03-15T12:29:32;101597.22;;;2.61;85.12
60715;BME280;46564;53.096;8.246;2023-03-15T12:35:12;101590.56;;;3.08;84.62
60715;BME280;46564;53.096;8.246;2023-03-15T12:40:59;101603.22;;;3.61;83.69
60715;BME280;46564;53.096;8.246;2023-03-15T12:54:21;101600.50;;;4.51;82.71
60715;BME280;46564;53.096;8.246;2023-03-15T13:07:14;101593.16;;;4.91;81.02
60715;BME280;46564;53.096;8.246;2023-03-15T13:19:17;101592.47;;;5.28;79.47
60715;BME280;46564;53.096;8.246;2023-03-15T13:24:45;101580.84;;;5.38;78.81
60715;BME280;46564;53.096;8.246;2023-03-15T13:29:52;101579.97;;;5.38;78.22
60715;BME280;46564;53.096;8.246;2023-03-15T13:35:05;101583.03;;;5.47;77.66
60715;BME280;46564;53.096;8.246;2023-03-15T13:40:18;101584.59;;;5.61;76.73
60715;BME280;46564;53.096;8.246;2023-03-15T13:45:25;101592.38;;;5.61;76.32
60715;BME280;46564;53.096;8.246;2023-03-15T13:50:30;101596.69;;;5.61;75.36
60715;BME280;46564;53.096;8.246;2023-03-15T13:55:33;101600.47;;;5.84;75.12
60715;BME280;46564;53.096;8.246;2023-03-15T14:00:35;101598.59;;;5.81;74.49
60715;BME280;46564;53.096;8.246;2023-03-15T14:05:46;101610.66;;;6.15;74.57
60715;BME280;46564;53.096;8.246;2023-03-15T14:59:30;101617.13;;;6.42;70.35
60715;BME280;46564;53.096;8.246;2023-03-15T15:04:39;101618.38;;;6.32;69.71
60715;BME280;46564;53.096;8.246;2023-03-15T15:09:47;101621.97;;;6.34;69.67
60715;BME280;46564;53.096;8.246;2023-03-15T15:14:49;101621.19;;;6.54;69.56
60715;BME280;46564;53.096;8.246;2023-03-15T15:19:51;101626.25;;;6.71;68.22
60715;BME280;46564;53.096;8.246;2023-03-15T15:24:52;101625.75;;;6.78;65.93
60715;BME280;46564;53.096;8.246;2023-03-15T15:29:54;101626.09;;;6.86;65.07
60715;BME280;46564;53.096;8.246;2023-03-15T15:34:58;101626.94;;;6.85;64.12
60715;BME280;46564;53.096;8.246;2023-03-15T15:40:00;101630.47;;;6.87;63.28
60715;BME280;46564;53.096;8.246;2023-03-15T15:45:08;101630.34;;;6.84;62.33
60715;BME280;46564;53.096;8.246;2023-03-15T15:50:16;101625.06;;;6.82;61.66
60715;BME280;46564;53.096;8.246;2023-03-15T15:55:20;101624.50;;;6.70;61.62
60715;BME280;46564;53.096;8.246;2023-03-15T16:00:26;101623.53;;;6.68;61.33
60715;BME280;46564;53.096;8.246;2023-03-15T16:05:29;101637.75;;;6.57;60.99
60715;BME280;46564;53.096;8.246;2023-03-15T16:10:31;101637.41;;;6.49;60.45
60715;BME280;46564;53.096;8.246;2023-03-15T16:15:36;101630.13;;;6.42;60.10
60715;BME280;46564;53.096;8.246;2023-03-15T16:20:41;101635.78;;;6.33;60.18
60715;BME280;46564;53.096;8.246;2023-03-15T16:25:45;101639.88;;;6.28;59.70
60715;BME280;46564;53.096;8.246;2023-03-15T16:30:48;101644.63;;;6.18;59.45
60715;BME280;46564;53.096;8.246;2023-03-15T16:35:50;101651.81;;;6.06;60.02
60715;BME280;46564;53.096;8.246;2023-03-15T16:40:53;101644.81;;;5.87;61.16
60715;BME280;46564;53.096;8.246;2023-03-15T16:45:55;101656.94;;;5.70;62.25
60715;BME280;46564;53.096;8.246;2023-03-15T16:50:56;101656.63;;;5.47;63.27
60715;BME280;46564;53.096;8.246;2023-03-15T16:55:58;101657.50;;;5.30;64.12
60715;BME280;46564;53.096;8.246;2023-03-15T17:00:59;101673.06;;;5.13;64.54
60715;BME280;46564;53.096;8.246;2023-03-15T17:06:02;101678.31;;;4.99;65.34
60715;BME280;46564;53.096;8.246;2023-03-15T17:11:03;101679.09;;;4.81;66.27
60715;BME280;46564;53.096;8.246;2023-03-15T17:16:10;101680.94;;;4.67;66.70
60715;BME280;46564;53.096;8.246;2023-03-15T17:21:13;101685.34;;;4.53;67.29
60715;BME280;46564;53.096;8.246;2023-03-15T17:26:18;101696.31;;;4.33;67.89
60715;BME280;46564;53.096;8.246;2023-03-15T17:31:21;101691.75;;;4.14;68.54
60715;BME280;46564;53.096;8.246;2023-03-15T17:36:28;101699.19;;;3.93;69.07
60715;BME280;46564;53.096;8.246;2023-03-15T17:41:34;101700.53;;;3.71;69.71
60715;BME280;46564;53.096;8.246;2023-03-15T17:46:39;101703.50;;;3.49;70.64
60715;BME280;46564;53.096;8.246;2023-03-15T17:51:40;101710.34;;;3.33;71.12
60715;BME280;46564;53.096;8.246;2023-03-15T17:56:42;101714.78;;;3.08;71.88
60715;BME280;46564;53.096;8.246;2023-03-15T18:01:44;101719.50;;;2.87;72.43
60715;BME280;46564;53.096;8.246;2023-03-15T18:06:49;101710.31;;;2.63;73.23
60715;BME280;46564;53.096;8.246;2023-03-15T18:11:50;101715.69;;;2.40;74.00
60715;BME280;46564;53.096;8.246;2023-03-15T18:16:52;101715.28;;;2.20;74.69
60715;BME280;46564;53.096;8.246;2023-03-15T18:21:54;101724.41;;;2.02;75.14
60715;BME280;46564;53.096;8.246;2023-03-15T18:26:55;101725.88;;;1.85;76.17
60715;BME280;46564;53.096;8.246;2023-03-15T18:31:57;101739.09;;;1.64;76.29
60715;BME280;46564;53.096;8.246;2023-03-15T18:36:59;101751.75;;;1.48;77.19
60715;BME280;46564;53.096;8.246;2023-03-15T18:42:00;101744.81;;;1.35;77.52
60715;BME280;46564;53.096;8.246;2023-03-15T18:47:02;101762.59;;;1.18;77.82
60715;BME280;46564;53.096;8.246;2023-03-15T18:52:10;101765.91;;;1.04;78.22
60715;BME280;46564;53.096;8.246;2023-03-15T18:57:14;101759.72;;;0.90;78.91
60715;BME280;46564;53.096;8.246;2023-03-15T19:02:16;101768.28;;;0.77;79.01
60715;BME280;46564;53.096;8.246;2023-03-15T19:07:17;101776.00;;;0.65;79.77
60715;BME280;46564;53.096;8.246;2023-03-15T19:12:19;101773.88;;;0.60;79.75
60715;BME280;46564;53.096;8.246;2023-03-15T19:17:20;101785.22;;;0.50;80.21
60715;BME280;46564;53.096;8.246;2023-03-15T19:22:22;101785.19;;;0.38;80.22
60715;BME280;46564;53.096;8.246;2023-03-15T19:27:24;101782.81;;;0.29;81.04
60715;BME280;46564;53.096;8.246;2023-03-15T19:32:25;101784.59;;;0.19;80.63
60715;BME280;46564;53.096;8.246;2023-03-15T19:37:30;101787.28;;;0.08;81.36
60715;BME280;46564;53.096;8.246;2023-03-15T19:42:31;101788.38;;;0.00;81.54
60715;BME280;46564;53.096;8.246;2023-03-15T19:47:33;101792.03;;;-0.08;82.05
60715;BME280;46564;53.096;8.246;2023-03-15T19:52:34;101795.69;;;-0.28;82.02
60715;BME280;46564;53.096;8.246;2023-03-15T19:57:38;101781.31;;;-0.37;82.53
60715;BME280;46564;53.096;8.246;2023-03-15T20:02:41;101781.47;;;-0.45;82.60
60715;BME280;46564;53.096;8.246;2023-03-15T20:07:43;101792.63;;;-0.57;83.21
60715;BME280;46564;53.096;8.246;2023-03-15T20:12:46;101793.03;;;-0.62;83.07
60715;BME280;46564;53.096;8.246;2023-03-15T20:17:48;101793.09;;;-0.73;83.62
60715;BME280;46564;53.096;8.246;2023-03-15T20:22:50;101800.09;;;-0.82;83.52
60715;BME280;46564;53.096;8.246;2023-03-15T20:27:51;101799.50;;;-0.90;83.61
60715;BME280;46564;53.096;8.246;2023-03-15T20:32:53;101793.75;;;-0.97;84.23
60715;BME280;46564;53.096;8.246;2023-03-15T20:37:55;101799.03;;;-1.06;84.23
60715;BME280;46564;53.096;8.246;2023-03-15T20:42:57;101790.47;;;-1.17;84.68
60715;BME280;46564;53.096;8.246;2023-03-15T20:47:59;101801.03;;;-1.24;84.46
60715;BME280;46564;53.096;8.246;2023-03-15T20:53:01;101797.56;;;-1.25;85.04
60715;BME280;46564;53.096;8.246;2023-03-15T20:58:03;101799.09;;;-1.27;85.04
60715;BME280;46564;53.096;8.246;2023-03-15T21:03:06;101801.06;;;-1.34;85.26
60715;BME280;46564;53.096;8.246;2023-03-15T21:08:08;101799.91;;;-1.38;85.62
60715;BME280;46564;53.096;8.246;2023-03-15T21:13:10;101801.19;;;-1.43;85.72
60715;BME280;46564;53.096;8.246;2023-03-15T21:18:13;101793.75;;;-1.50;85.55
60715;BME280;46564;53.096;8.246;2023-03-15T21:23:15;101803.16;;;-1.61;85.63
60715;BME280;46564;53.096;8.246;2023-03-15T21:28:16;101809.72;;;-1.65;85.68
60715;BME280;46564;53.096;8.246;2023-03-15T21:33:20;101805.34;;;-1.76;85.75
60715;BME280;46564;53.096;8.246;2023-03-15T21:38:21;101807.53;;;-1.81;85.89
60715;BME280;46564;53.096;8.246;2023-03-15T21:43:24;101812.16;;;-1.87;86.19
60715;BME280;46564;53.096;8.246;2023-03-15T21:48:26;101811.41;;;-1.96;86.17
60715;BME280;46564;53.096;8.246;2023-03-15T21:53:29;101819.75;;;-1.99;86.14
60715;BME280;46564;53.096;8.246;2023-03-15T21:58:31;101820.13;;;-2.04;86.60
60715;BME280;46564;53.096;8.246;2023-03-15T22:03:35;101814.59;;;-2.09;86.37
60715;BME280;46564;53.096;8.246;2023-03-15T22:08:37;101817.44;;;-2.16;86.56
60715;BME280;46564;53.096;8.246;2023-03-15T22:13:39;101812.00;;;-2.19;87.06
60715;BME280;46564;53.096;8.246;2023-03-15T22:18:42;101822.69;;;-2.25;86.94
60715;BME280;46564;53.096;8.246;2023-03-15T22:23:43;101808.53;;;-2.30;86.93
60715;BME280;46564;53.096;8.246;2023-03-15T22:28:45;101816.25;;;-2.30;87.06
60715;BME280;46564;53.096;8.246;2023-03-15T22:33:47;101807.16;;;-2.26;87.27
60715;BME280;46564;53.096;8.246;2023-03-15T22:38:48;101804.59;;;-2.26;87.32
60715;BME280;46564;53.096;8.246;2023-03-15T22:43:50;101807.78;;;-2.29;87.65
60715;BME280;46564;53.096;8.246;2023-03-15T22:48:55;101813.16;;;-2.36;87.46
60715;BME280;46564;53.096;8.246;2023-03-15T22:53:57;101806.63;;;-2.43;87.71
60715;BME280;46564;53.096;8.246;2023-03-15T22:58:58;101812.38;;;-2.45;87.98
60715;BME280;46564;53.096;8.246;2023-03-15T23:04:00;101811.72;;;-2.53;87.71
60715;BME280;46564;53.096;8.246;2023-03-15T23:09:02;101803.13;;;-2.54;87.90
60715;BME280;46564;53.096;8.246;2023-03-15T23:14:06;101804.66;;;-2.56;87.57
60715;BME280;46564;53.096;8.246;2023-03-15T23:19:08;101809.25;;;-2.62;87.60
60715;BME280;46564;53.096;8.246;2023-03-15T23:24:10;101806.19;;;-2.58;87.62
60715;BME280;46564;53.096;8.246;2023-03-15T23:29:14;101811.59;;;-2.55;88.15
60715;BME280;46564;53.096;8.246;2023-03-15T23:34:15;101814.66;;;-2.59;87.80
60715;BME280;46564;53.096;8.246;2023-03-15T23:39:18;101820.66;;;-2.58;88.11
60715;BME280;46564;53.096;8.246;2023-03-15T23:44:19;101824.78;;;-2.60;87.93
60715;BME280;46564;53.096;8.246;2023-03-15T23:49:21;101824.03;;;-2.49;88.04
60715;BME280;46564;53.096;8.246;2023-03-15T23:54:26;101818.38;;;-2.45;88.16
60715;BME280;46564;53.096;8.246;2023-03-15T23:59:28;101811.22;;;-2.39;88.08
